Time;durP1;ratioP1;P1;durP2;ratioP2;P2;SDS_P1;SDS_P2;PMS_P1;PMS_P2;Temp;Humidity;BMP_temperature;BMP_pressure;BME280_temperature;BME280_humidity;BME280_pressure;Samples;Min_cycle;Max_cycle;Signal;HPM_P1;HPM_P2
2022/11/25 00:01:11;;;;;;;1.50;1.00;;;20.60;49.80;;;;;;5073837;28;20411;-54
2022/11/25 00:03:37;;;;;;;2.27;1.40;;;20.60;49.80;;;;;;5074313;28;20042;-54
2022/11/25 00:06:18;;;;;;;2.25;1.20;;;20.60;49.80;;;;;;5074233;28;20274;-54
2022/11/25 00:08:46;;;;;;;2.80;1.58;;;20.60;49.80;;;;;;5073865;28;20048;-54
2022/11/25 00:11:12;;;;;;;3.90;1.60;;;20.50;49.80;;;;;;5074237;28;20075;-54
2022/11/25 00:13:39;;;;;;;2.85;1.38;;;20.50;49.80;;;;;;5072415;28;20041;-54
2022/11/25 00:16:11;;;;;;;2.95;1.60;;;20.50;49.70;;;;;;5073494;28;20123;-54
2022/11/25 00:18:37;;;;;;;3.45;1.27;;;20.50;49.70;;;;;;5055823;28;20167;-54
2022/11/25 00:21:12;;;;;;;1.80;1.30;;;20.50;49.70;;;;;;5056372;28;20076;-55
2022/11/25 00:23:38;;;;;;;2.58;1.60;;;20.50;49.70;;;;;;5056691;28;20044;-55
2022/11/25 00:26:10;;;;;;;4.25;1.52;;;20.40;49.70;;;;;;5056361;28;20175;-54
2022/11/25 00:28:37;;;;;;;2.70;1.35;;;20.40;49.70;;;;;;5072773;28;20066;-54
2022/11/25 00:31:04;;;;;;;4.18;1.48;;;20.40;49.80;;;;;;5074195;28;20037;-54
2022/11/25 00:33:30;;;;;;;2.88;1.40;;;20.40;50.50;;;;;;5073851;28;20051;-54
2022/11/25 00:35:58;;;;;;;2.10;1.38;;;20.40;49.70;;;;;;5073931;28;20115;-54
2022/11/25 00:38:24;;;;;;;3.00;1.42;;;20.40;49.70;;;;;;5073857;28;20127;-54
2022/11/25 00:44:34;;;;;;;2.75;1.42;;;20.30;49.60;;;;;;5073766;28;20127;-54
2022/11/25 00:46:21;;;;;;;3.83;1.42;;;20.30;49.70;;;;;;5073518;28;20480;-55
2022/11/25 00:48:47;;;;;;;2.53;1.25;;;20.30;49.70;;;;;;5073737;28;20052;-55
2022/11/25 00:51:12;;;;;;;3.45;1.60;;;20.30;49.70;;;;;;5073540;28;20131;-55
2022/11/25 00:53:38;;;;;;;3.08;1.63;;;20.30;49.70;;;;;;5073657;28;20468;-54
2022/11/25 00:56:14;;;;;;;2.42;1.30;;;20.30;49.60;;;;;;5089345;28;20052;-55
2022/11/25 00:58:40;;;;;;;3.17;1.63;;;20.20;49.60;;;;;;5073911;28;20127;-54
2022/11/25 01:01:07;;;;;;;3.40;1.55;;;20.30;49.60;;;;;;5071975;28;20472;-54
2022/11/25 01:03:33;;;;;;;2.90;1.48;;;20.20;49.50;;;;;;5072870;28;20036;-54
2022/11/25 01:06:07;;;;;;;2.40;1.15;;;20.20;49.50;;;;;;5073274;28;20415;-54
2022/11/25 01:08:34;;;;;;;3.15;1.50;;;20.20;49.50;;;;;;5072829;28;20087;-54
2022/11/25 01:11:02;;;;;;;2.78;1.30;;;20.20;49.50;;;;;;5073518;28;20086;-54
2022/11/25 01:13:28;;;;;;;2.63;1.25;;;20.20;50.20;;;;;;5073096;28;20083;-54
2022/11/25 01:15:53;;;;;;;2.13;1.23;;;20.10;49.50;;;;;;5072793;28;20422;-54
2022/11/25 01:18:19;;;;;;;3.35;1.50;;;20.10;49.50;;;;;;5073140;28;20102;-53
2022/11/25 01:20:45;;;;;;;2.80;1.05;;;20.10;49.50;;;;;;5075451;28;20040;-54
2022/11/25 01:23:11;;;;;;;2.80;1.80;;;20.10;49.40;;;;;;5093409;28;20040;-54
2022/11/25 01:25:37;;;;;;;2.35;1.52;;;20.10;49.50;;;;;;5093403;28;20036;-54
2022/11/25 01:28:03;;;;;;;3.13;1.30;;;20.10;49.40;;;;;;5079943;28;20096;-55
2022/11/25 01:30:29;;;;;;;2.30;1.50;;;20.10;49.40;;;;;;5098293;28;20046;-54
2022/11/25 01:32:55;;;;;;;2.03;1.20;;;20.10;49.40;;;;;;5096239;28;20032;-54
2022/11/25 01:35:21;;;;;;;3.05;1.30;;;20.10;49.40;;;;;;5096511;28;20036;-54
2022/11/25 01:37:46;;;;;;;2.97;1.45;;;20.00;49.40;;;;;;5096948;28;20047;-54
2022/11/25 01:40:12;;;;;;;2.20;1.23;;;20.00;49.40;;;;;;5097354;28;20126;-54
2022/11/25 01:42:44;;;;;;;2.95;1.40;;;20.00;49.40;;;;;;5095998;28;20046;-54
2022/11/25 01:45:36;;;;;;;2.15;1.20;;;20.00;49.40;;;;;;5097108;28;20472;-54
2022/11/25 01:48:11;;;;;;;2.33;1.50;;;20.00;49.30;;;;;;5089266;28;20052;-55
2022/11/25 01:50:38;;;;;;;2.30;1.20;;;20.00;50.20;;;;;;5097189;28;20040;-54
2022/11/25 01:53:06;;;;;;;3.50;1.60;;;20.00;49.50;;;;;;5097035;28;20051;-54
2022/11/25 01:55:35;;;;;;;2.65;1.30;;;19.90;49.40;;;;;;5096326;28;20058;-55
2022/11/25 01:58:04;;;;;;;1.00;0.90;;;19.90;49.40;;;;;;5096659;28;20531;-54
2022/11/25 02:00:30;;;;;;;2.22;1.23;;;19.90;49.40;;;;;;5096808;28;20044;-54
2022/11/25 02:02:57;;;;;;;3.95;1.30;;;19.90;49.50;;;;;;5097469;28;20359;-54
2022/11/25 02:05:34;;;;;;;2.90;1.38;;;19.90;49.40;;;;;;5095900;28;20055;-53
2022/11/25 02:08:00;;;;;;;2.08;1.23;;;19.90;49.40;;;;;;5096673;28;20468;-54
2022/11/25 02:10:29;;;;;;;2.70;1.35;;;19.90;49.50;;;;;;5096853;28;20040;-54
2022/11/25 02:12:56;;;;;;;2.78;1.30;;;19.90;50.20;;;;;;5096680;28;20073;-54
2022/11/25 02:15:22;;;;;;;3.00;1.40;;;19.90;49.50;;;;;;5096020;28;20050;-54
2022/11/25 02:17:48;;;;;;;3.40;1.25;;;19.90;49.50;;;;;;5095443;28;20036;-54
2022/11/25 02:20:19;;;;;;;2.15;1.10;;;19.80;49.50;;;;;;5096813;28;20059;-55
2022/11/25 02:23:18;;;;;;;1.95;1.20;;;19.90;49.50;;;;;;5096437;28;20119;-54
2022/11/25 02:25:45;;;;;;;1.92;1.10;;;19.90;49.50;;;;;;5079069;28;20043;-54
2022/11/25 02:28:13;;;;;;;2.67;1.27;;;19.80;49.50;;;;;;5078337;28;20048;-55
2022/11/25 02:30:39;;;;;;;1.88;1.25;;;19.80;49.60;;;;;;5096295;28;20044;-54
2022/11/25 02:33:05;;;;;;;2.38;1.30;;;19.80;49.60;;;;;;5096369;28;20086;-54
2022/11/25 02:35:35;;;;;;;1.90;1.17;;;19.80;49.60;;;;;;5095421;28;20079;-54
2022/11/25 02:38:19;;;;;;;3.25;1.50;;;19.80;49.60;;;;;;5093724;28;20048;-54
2022/11/25 02:40:47;;;;;;;2.97;1.38;;;19.80;49.60;;;;;;5096165;28;20040;-55
2022/11/25 02:43:14;;;;;;;1.80;1.02;;;19.80;49.80;;;;;;5078296;28;20051;-54
2022/11/25 02:46:04;;;;;;;1.80;1.10;;;19.70;49.60;;;;;;5078156;28;20380;-54
2022/11/25 02:48:33;;;;;;;2.47;1.40;;;19.70;49.50;;;;;;5096030;28;20036;-54
2022/11/25 02:50:59;;;;;;;2.55;1.08;;;19.70;49.60;;;;;;5095204;28;20039;-55
2022/11/25 02:53:25;;;;;;;2.92;1.13;;;19.70;49.70;;;;;;5095682;28;20388;-55
2022/11/25 02:55:51;;;;;;;2.47;1.20;;;19.70;49.60;;;;;;5095807;28;20046;-55
2022/11/25 02:58:17;;;;;;;3.47;1.58;;;19.70;49.60;;;;;;5095671;28;20119;-53
2022/11/25 03:00:44;;;;;;;2.72;1.42;;;19.70;49.70;;;;;;5095982;28;20048;-55
2022/11/25 03:03:10;;;;;;;3.28;1.35;;;19.70;50.40;;;;;;5094451;28;20036;-54
2022/11/25 03:05:36;;;;;;;3.45;1.38;;;19.70;49.60;;;;;;5095681;28;20109;-54
2022/11/25 03:08:02;;;;;;;2.15;1.35;;;19.70;49.70;;;;;;5095629;28;20459;-54
2022/11/25 03:10:29;;;;;;;2.00;1.15;;;19.70;49.70;;;;;;5095543;28;20036;-54
2022/11/25 03:12:54;;;;;;;2.22;1.30;;;19.60;49.80;;;;;;5095195;28;20076;-54
2022/11/25 03:15:20;;;;;;;3.10;1.23;;;19.60;49.70;;;;;;5095495;28;20088;-55
2022/11/25 03:17:47;;;;;;;3.60;1.58;;;19.60;49.70;;;;;;5095443;28;20353;-54
2022/11/25 03:20:14;;;;;;;3.15;1.65;;;19.60;49.80;;;;;;5094826;28;20129;-54
2022/11/25 03:22:43;;;;;;;2.90;1.30;;;19.60;49.80;;;;;;5095837;28;20040;-54
2022/11/25 03:25:11;;;;;;;3.08;1.40;;;19.60;49.80;;;;;;5094126;28;20136;-54
2022/11/25 03:27:37;;;;;;;2.70;1.30;;;19.60;49.90;;;;;;5095323;28;20079;-55
2022/11/25 03:30:07;;;;;;;2.38;1.20;;;19.60;49.80;;;;;;5095726;28;20388;-54
2022/11/25 03:32:32;;;;;;;3.20;1.63;;;19.60;49.90;;;;;;5094031;28;20047;-54
2022/11/25 03:34:58;;;;;;;2.42;1.38;;;19.60;49.90;;;;;;5095190;28;20040;-54
2022/11/25 03:37:24;;;;;;;3.20;1.42;;;19.50;49.90;;;;;;5095143;28;20353;-54
2022/11/25 03:39:49;;;;;;;3.60;1.65;;;19.60;49.90;;;;;;5093797;28;20036;-54
2022/11/25 03:42:15;;;;;;;1.95;0.90;;;19.50;49.90;;;;;;5094850;28;20357;-54
2022/11/25 03:44:41;;;;;;;3.00;1.25;;;19.50;49.90;;;;;;5095398;28;20090;-54
2022/11/25 03:47:06;;;;;;;2.53;1.48;;;19.50;50.00;;;;;;5094940;28;20548;-54
2022/11/25 03:49:32;;;;;;;1.67;1.30;;;19.50;49.90;;;;;;5094630;28;20040;-54
2022/11/25 03:51:58;;;;;;;3.10;1.30;;;19.50;50.00;;;;;;5094816;28;20043;-52
2022/11/25 03:54:24;;;;;;;2.20;1.40;;;19.50;50.00;;;;;;5093549;28;20119;-54
2022/11/25 03:56:50;;;;;;;1.85;1.17;;;19.50;50.00;;;;;;5095018;28;20131;-55
2022/11/25 03:59:15;;;;;;;2.58;1.30;;;19.50;50.10;;;;;;5094771;28;20127;-55
2022/11/25 04:01:41;;;;;;;1.83;1.40;;;19.50;50.00;;;;;;5077301;28;20039;-54
2022/11/25 04:04:06;;;;;;;1.95;1.10;;;19.50;50.00;;;;;;5094569;28;20036;-55
2022/11/25 04:06:32;;;;;;;2.65;1.30;;;19.40;50.10;;;;;;5093304;28;20100;-55
2022/11/25 04:08:58;;;;;;;3.17;1.67;;;19.40;50.10;;;;;;5094157;28;20040;-54
2022/11/25 04:12:45;;;;;;;2.78;1.30;;;19.40;50.00;;;;;;5094448;28;20040;-55
2022/11/25 04:14:12;;;;;;;3.63;1.45;;;19.40;50.10;;;;;;5094507;28;20468;-54
2022/11/25 04:16:38;;;;;;;2.25;1.25;;;19.40;50.10;;;;;;5094351;28;20062;-54
2022/11/25 04:19:04;;;;;;;1.63;1.20;;;19.40;50.20;;;;;;5094361;28;20052;-54
2022/11/25 04:21:30;;;;;;;2.65;1.52;;;19.40;50.10;;;;;;5094838;28;20044;-54
2022/11/25 04:23:55;;;;;;;2.00;1.25;;;19.40;50.10;;;;;;5093963;28;20039;-54
2022/11/25 04:26:21;;;;;;;1.90;1.10;;;19.40;50.20;;;;;;5094252;28;20050;-54
2022/11/25 04:28:46;;;;;;;2.65;1.25;;;19.40;50.10;;;;;;5094184;28;20075;-54
2022/11/25 04:31:12;;;;;;;2.53;1.30;;;19.40;50.10;;;;;;5094100;28;20115;-55
2022/11/25 04:33:38;;;;;;;4.13;1.52;;;19.40;50.10;;;;;;5094035;28;20044;-54
2022/11/25 04:36:04;;;;;;;2.95;1.38;;;19.40;50.10;;;;;;5093202;28;20044;-55
2022/11/25 04:38:29;;;;;;;3.35;1.48;;;19.40;50.30;;;;;;5093828;28;20044;-54
2022/11/25 04:40:55;;;;;;;2.45;1.30;;;19.40;50.20;;;;;;5093033;28;20036;-53
2022/11/25 04:43:21;;;;;;;3.50;1.42;;;19.40;50.20;;;;;;5076255;28;20119;-55
2022/11/25 04:45:48;;;;;;;2.00;1.30;;;19.40;50.20;;;;;;5093916;28;20520;-54
2022/11/25 04:48:14;;;;;;;4.05;1.23;;;19.30;50.10;;;;;;5093876;28;20042;-55
2022/11/25 04:50:39;;;;;;;1.73;1.23;;;19.30;50.10;;;;;;5093873;28;20047;-54
2022/11/25 04:53:05;;;;;;;2.45;1.30;;;19.30;50.20;;;;;;5094233;28;20148;-54
2022/11/25 04:55:31;;;;;;;2.53;1.30;;;19.30;50.10;;;;;;5093581;28;20044;-54
2022/11/25 04:57:56;;;;;;;3.65;1.40;;;19.30;50.10;;;;;;5093807;28;20101;-54
2022/11/25 05:00:22;;;;;;;2.55;1.38;;;19.30;50.20;;;;;;5093242;28;20036;-55
2022/11/25 05:02:48;;;;;;;1.90;1.20;;;19.30;50.10;;;;;;5098865;28;20044;-55
2022/11/25 05:05:14;;;;;;;3.92;1.63;;;19.30;50.10;;;;;;5098289;28;20097;-54
2022/11/25 05:07:40;;;;;;;2.63;1.30;;;19.30;50.20;;;;;;5098473;28;20032;-54
2022/11/25 05:10:06;;;;;;;2.55;1.33;;;19.30;50.10;;;;;;5096966;28;20052;-53
2022/11/25 05:12:32;;;;;;;1.92;1.20;;;19.30;50.20;;;;;;5097872;28;20093;-54
2022/11/25 05:14:58;;;;;;;2.00;1.10;;;19.30;50.20;;;;;;5097088;28;20039;-54
2022/11/25 05:17:29;;;;;;;2.15;1.00;;;19.30;50.20;;;;;;5098582;28;20043;-54
2022/11/25 05:19:55;;;;;;;3.10;1.40;;;19.30;50.20;;;;;;5096523;28;20059;-54
2022/11/25 05:22:23;;;;;;;2.85;1.50;;;19.30;50.10;;;;;;5096361;28;20052;-54
2022/11/25 05:24:49;;;;;;;3.00;1.27;;;19.20;50.10;;;;;;5098003;28;20055;-54
2022/11/25 05:27:15;;;;;;;1.83;1.30;;;19.20;50.10;;;;;;5096378;28;20039;-55
2022/11/25 05:29:41;;;;;;;2.60;1.50;;;19.30;50.20;;;;;;5097578;28;20119;-54
2022/11/25 05:32:07;;;;;;;2.65;1.45;;;19.20;50.10;;;;;;5097480;28;20375;-55
2022/11/25 05:34:33;;;;;;;2.70;1.50;;;19.20;50.10;;;;;;5097368;28;20384;-55
2022/11/25 05:36:59;;;;;;;4.20;1.70;;;19.20;50.10;;;;;;5095919;28;20047;-55
2022/11/25 05:39:25;;;;;;;3.60;1.38;;;19.20;50.30;;;;;;5098220;28;20120;-54
2022/11/25 05:41:50;;;;;;;2.53;1.30;;;19.20;50.30;;;;;;5096105;28;20032;-54
2022/11/25 05:44:16;;;;;;;3.25;1.20;;;19.20;50.30;;;;;;5095994;28;20074;-54
2022/11/25 05:46:45;;;;;;;3.08;1.40;;;19.20;50.30;;;;;;5097276;28;20036;-54
2022/11/25 05:49:12;;;;;;;2.45;1.40;;;19.20;50.20;;;;;;5096242;28;20044;-54
2022/11/25 05:51:37;;;;;;;2.63;1.27;;;19.20;50.30;;;;;;5097187;28;20116;-55
2022/11/25 05:54:03;;;;;;;2.38;1.38;;;19.20;50.20;;;;;;5097128;28;20047;-54
2022/11/25 05:56:29;;;;;;;2.80;1.30;;;19.20;50.20;;;;;;5097609;28;20047;-55
2022/11/25 05:58:56;;;;;;;2.00;1.00;;;19.20;50.30;;;;;;5096284;28;20055;-55
2022/11/25 06:01:22;;;;;;;2.20;1.20;;;19.20;50.40;;;;;;5095422;28;20490;-54
2022/11/25 06:03:48;;;;;;;2.03;1.00;;;19.20;50.30;;;;;;5095702;28;20036;-54
2022/11/25 06:06:14;;;;;;;2.67;1.25;;;19.20;50.30;;;;;;5096837;28;20035;-53
2022/11/25 06:08:39;;;;;;;2.47;1.23;;;19.10;50.30;;;;;;5096922;28;20036;-54
2022/11/25 06:11:07;;;;;;;2.63;1.20;;;19.10;50.40;;;;;;5097250;28;20161;-55
2022/11/25 06:13:33;;;;;;;1.35;1.00;;;19.10;50.30;;;;;;5095250;28;20483;-54
2022/11/25 06:15:59;;;;;;;2.30;1.27;;;19.10;50.30;;;;;;5096549;28;20067;-54
2022/11/25 06:18:24;;;;;;;4.38;1.55;;;19.20;50.40;;;;;;5096683;28;20498;-54
2022/11/25 06:20:57;;;;;;;5.20;1.63;;;19.20;50.50;;;;;;5095311;28;20373;-54
2022/11/25 06:23:24;;;;;;;3.58;1.70;;;19.30;50.70;;;;;;5096241;28;20487;-54
2022/11/25 06:25:50;;;;;;;3.80;1.55;;;19.90;49.90;;;;;;5095402;28;20031;-53
2022/11/25 06:28:15;;;;;;;3.20;1.42;;;20.60;48.50;;;;;;5095476;28;20043;-53
2022/11/25 06:30:41;;;;;;;3.03;1.23;;;21.30;47.00;;;;;;5096374;28;20047;-58
2022/11/25 06:33:07;;;;;;;3.35;1.48;;;21.90;46.00;;;;;;5096368;28;20080;-54
2022/11/25 06:35:32;;;;;;;3.92;1.48;;;22.30;45.10;;;;;;5096338;28;20044;-54
2022/11/25 06:37:58;;;;;;;2.40;1.25;;;22.50;45.50;;;;;;5097128;28;20056;-54
2022/11/25 06:40:24;;;;;;;4.30;1.52;;;22.60;44.80;;;;;;5095541;28;20032;-54
2022/11/25 06:42:49;;;;;;;4.30;1.50;;;22.40;45.00;;;;;;5096678;28;20036;-54
2022/11/25 06:45:15;;;;;;;4.40;1.30;;;22.30;45.30;;;;;;5096046;28;20377;-54
2022/11/25 06:47:41;;;;;;;4.00;1.13;;;22.30;45.60;;;;;;5096088;28;20071;-54
2022/11/25 06:50:07;;;;;;;4.20;1.25;;;22.20;45.80;;;;;;5078191;28;20091;-54
2022/11/25 06:52:33;;;;;;;3.38;1.45;;;22.10;46.00;;;;;;5095022;28;20081;-54
2022/11/25 06:54:59;;;;;;;3.15;1.23;;;21.90;46.20;;;;;;5095765;28;20051;-54
2022/11/25 06:57:25;;;;;;;3.85;1.17;;;21.80;46.50;;;;;;5095772;28;20448;-55
2022/11/25 06:59:50;;;;;;;2.85;1.30;;;21.70;46.80;;;;;;5078553;28;20032;-54
2022/11/25 07:02:16;;;;;;;2.67;1.35;;;21.60;47.10;;;;;;5095747;28;20127;-54
2022/11/25 07:04:43;;;;;;;3.35;1.40;;;21.60;47.20;;;;;;5095760;28;20032;-54
2022/11/25 07:07:09;;;;;;;5.07;1.30;;;21.50;47.30;;;;;;5095722;28;20044;-53
2022/11/25 07:09:35;;;;;;;3.45;1.10;;;21.50;47.40;;;;;;5096169;28;20162;-54
2022/11/25 07:12:00;;;;;;;5.55;1.35;;;21.50;47.50;;;;;;5094566;28;20071;-54
2022/11/25 07:14:26;;;;;;;5.57;1.40;;;21.50;47.50;;;;;;5077429;28;20482;-54
2022/11/25 07:16:53;;;;;;;2.40;1.10;;;21.40;47.50;;;;;;5095763;28;20036;-55
2022/11/25 07:19:18;;;;;;;3.20;1.27;;;21.50;47.60;;;;;;5095384;28;20052;-53
2022/11/25 07:21:44;;;;;;;2.90;1.20;;;21.50;47.60;;;;;;5095830;28;20330;-54
2022/11/25 07:24:13;;;;;;;3.13;1.15;;;21.50;47.60;;;;;;5094897;28;20031;-54
2022/11/25 07:26:40;;;;;;;6.18;1.35;;;21.50;47.60;;;;;;5093805;28;20484;-54
2022/11/25 07:29:10;;;;;;;5.20;1.13;;;21.50;47.70;;;;;;5095258;28;20040;-54
2022/11/25 07:31:41;;;;;;;5.60;1.47;;;21.50;48.50;;;;;;5094955;28;20407;-55
2022/11/25 07:34:17;;;;;;;5.28;1.80;;;21.40;47.80;;;;;;5095233;28;20040;-55
2022/11/25 07:36:43;;;;;;;2.53;1.35;;;21.50;47.80;;;;;;5095677;28;20039;-54
2022/11/25 07:39:14;;;;;;;4.10;1.30;;;21.50;47.80;;;;;;5093811;28;20052;-55
2022/11/25 07:41:40;;;;;;;3.83;1.10;;;21.50;47.80;;;;;;5094997;28;20491;-55
2022/11/25 07:44:07;;;;;;;4.82;1.23;;;21.50;47.80;;;;;;5094891;28;20122;-53
2022/11/25 07:46:41;;;;;;;4.38;1.35;;;21.50;47.70;;;;;;5093770;28;20040;-54
2022/11/25 07:49:14;;;;;;;4.55;1.25;;;21.50;47.70;;;;;;5094298;28;20036;-54
2022/11/25 07:51:54;;;;;;;4.97;1.40;;;21.60;47.80;;;;;;5093771;28;20047;-53
2022/11/25 07:54:21;;;;;;;4.53;1.23;;;21.60;47.80;;;;;;5094239;28;20032;-53
2022/11/25 07:56:47;;;;;;;7.43;1.55;;;21.60;47.80;;;;;;5094750;28;20047;-54
2022/11/25 07:59:16;;;;;;;5.82;1.50;;;21.50;47.80;;;;;;5093722;28;20075;-54
2022/11/25 08:01:42;;;;;;;5.95;2.05;;;21.60;48.60;;;;;;5094576;28;20043;-54
2022/11/25 08:04:10;;;;;;;5.47;1.60;;;21.60;47.90;;;;;;5094565;28;20047;-53
2022/11/25 08:06:38;;;;;;;4.50;1.25;;;21.60;48.00;;;;;;5094539;28;20075;-53
2022/11/25 08:09:06;;;;;;;5.88;1.40;;;21.60;48.00;;;;;;5094493;28;20044;-55
2022/11/25 08:11:31;;;;;;;4.63;1.17;;;21.60;48.10;;;;;;5094778;28;20036;-55
2022/11/25 08:13:58;;;;;;;4.53;1.80;;;21.60;48.10;;;;;;5092926;28;20039;-54
2022/11/25 08:16:30;;;;;;;10.95;1.40;;;21.60;48.20;;;;;;5060113;28;20051;-53
2022/11/25 08:18:57;;;;;;;3.35;1.20;;;21.60;48.20;;;;;;5093248;28;20055;-53
2022/11/25 08:21:23;;;;;;;5.80;1.40;;;21.60;48.20;;;;;;5093989;28;20532;-52
2022/11/25 08:23:51;;;;;;;4.50;1.30;;;21.60;48.20;;;;;;5094348;28;20079;-53
2022/11/25 08:26:20;;;;;;;4.30;1.40;;;21.60;48.30;;;;;;5077165;28;20051;-52
2022/11/25 08:28:46;;;;;;;3.47;1.23;;;21.60;48.30;;;;;;5094143;28;20426;-52
2022/11/25 08:31:14;;;;;;;7.20;1.92;;;21.60;48.40;;;;;;5092938;28;20043;-53
2022/11/25 08:33:40;;;;;;;8.07;2.28;;;21.60;48.40;;;;;;5094112;28;20050;-51
2022/11/25 08:36:06;;;;;;;14.25;3.67;;;21.60;48.50;;;;;;5090636;28;20119;-52
2022/11/25 08:38:32;;;;;;;16.17;4.40;;;21.50;48.60;;;;;;5073852;28;20086;-53
2022/11/25 08:40:58;;;;;;;17.38;5.90;;;21.60;48.90;;;;;;5073713;28;20033;-51
2022/11/25 08:43:24;;;;;;;22.15;6.97;;;21.60;49.20;;;;;;5072796;28;20049;-51
2022/11/25 08:45:50;;;;;;;18.35;7.05;;;21.60;49.40;;;;;;5073411;28;20357;-51
2022/11/25 08:48:18;;;;;;;24.38;6.78;;;21.60;49.40;;;;;;5089392;28;20047;-60
2022/11/25 08:50:50;;;;;;;19.90;6.95;;;21.60;49.50;;;;;;5073050;28;20044;-53
2022/11/25 08:53:17;;;;;;;23.73;7.07;;;21.70;49.40;;;;;;5073501;28;20037;-52
2022/11/25 08:55:42;;;;;;;21.77;6.90;;;21.60;49.50;;;;;;5073666;28;20047;-49
2022/11/25 08:58:10;;;;;;;22.35;6.88;;;21.60;49.50;;;;;;5073610;28;20040;-51
2022/11/25 09:00:41;;;;;;;17.48;6.25;;;21.60;49.50;;;;;;5073582;28;20083;-51
2022/11/25 09:03:06;;;;;;;;;;;21.70;49.60;;;;;;5074006;28;20089;-48
2022/11/25 09:05:34;;;;;;;23.90;5.95;;;21.60;50.00;;;;;;5073356;28;20313;-49
2022/11/25 09:08:05;;;;;;;18.02;6.10;;;21.60;49.80;;;;;;5073525;28;20048;-48
2022/11/25 09:10:32;;;;;;;21.05;5.70;;;21.70;49.90;;;;;;5073512;28;20044;-49
2022/11/25 09:12:58;;;;;;;16.67;4.85;;;21.70;49.90;;;;;;5072588;28;20051;-52
2022/11/25 09:15:25;;;;;;;23.95;5.88;;;21.70;50.20;;;;;;5073465;28;20055;-50
2022/11/25 09:18:19;;;;;;;20.90;5.13;;;21.70;50.30;;;;;;5074312;28;20036;-52
2022/11/25 09:20:45;;;;;;;14.40;4.82;;;21.70;50.70;;;;;;5068958;28;20481;-48
2022/11/25 09:23:12;;;;;;;14.27;4.50;;;21.70;50.80;;;;;;5071798;28;20040;-51
2022/11/25 09:25:38;;;;;;;20.13;4.80;;;21.70;51.00;;;;;;5072735;28;20086;-52
2022/11/25 09:28:04;;;;;;;12.13;5.05;;;21.80;51.00;;;;;;5072615;28;20040;-53
2022/11/25 09:30:30;;;;;;;18.30;4.50;;;21.80;51.10;;;;;;5073844;28;20050;-53
2022/11/25 09:32:56;;;;;;;12.07;4.07;;;21.80;51.00;;;;;;5073319;28;20044;-55
2022/11/25 09:35:23;;;;;;;12.27;4.13;;;21.80;51.00;;;;;;5073333;28;20047;-56
2022/11/25 09:37:49;;;;;;;11.40;4.20;;;21.80;51.10;;;;;;5072331;28;20052;-49
2022/11/25 09:40:25;;;;;;;12.18;3.83;;;21.80;51.80;;;;;;5072923;28;20044;-48
2022/11/25 09:49:13;;;;;;;11.93;3.88;;;21.70;51.00;;;;;;5076830;28;20052;-52
2022/11/25 09:51:57;;;;;;;9.82;3.30;;;21.80;51.70;;;;;;5089250;28;20044;-52
2022/11/25 09:54:32;;;;;;;11.40;3.28;;;21.80;50.80;;;;;;5096990;28;20044;-51
2022/11/25 09:57:14;;;;;;;9.30;3.10;;;21.80;50.80;;;;;;5097137;28;20048;-50
2022/11/25 09:59:50;;;;;;;9.48;3.40;;;21.80;50.80;;;;;;5097298;28;20047;-49
2022/11/25 10:02:25;;;;;;;7.97;2.80;;;21.80;50.80;;;;;;5079746;28;20036;-51
2022/11/25 10:05:01;;;;;;;8.55;2.90;;;21.80;50.70;;;;;;5096679;28;20123;-49
2022/11/25 10:07:35;;;;;;;5.57;2.72;;;21.80;50.70;;;;;;5096358;28;20089;-51
2022/11/25 10:10:06;;;;;;;7.75;2.67;;;21.80;50.70;;;;;;5096872;28;20044;-49
2022/11/25 10:12:36;;;;;;;9.00;2.80;;;21.70;50.70;;;;;;5095838;28;20040;-50
2022/11/25 10:15:12;;;;;;;11.75;3.33;;;21.80;50.50;;;;;;5096807;28;20036;-51
2022/11/25 10:17:48;;;;;;;8.10;2.65;;;21.80;50.50;;;;;;5096660;28;20093;-48
2022/11/25 10:20:22;;;;;;;7.88;2.67;;;21.80;50.30;;;;;;5096124;28;20048;-54
2022/11/25 10:23:00;;;;;;;6.50;2.75;;;21.90;50.30;;;;;;5097389;28;20040;-54
2022/11/25 10:25:34;;;;;;;6.55;2.17;;;21.90;50.10;;;;;;5096875;28;20123;-52
2022/11/25 10:28:01;;;;;;;5.30;2.00;;;21.80;50.00;;;;;;5097326;28;20040;-51
2022/11/25 10:30:43;;;;;;;8.30;2.63;;;21.80;50.00;;;;;;5096971;28;20097;-51
2022/11/25 10:33:48;;;;;;;7.43;2.35;;;21.80;49.90;;;;;;5079087;28;20112;-52
2022/11/25 10:36:24;;;;;;;7.75;2.50;;;21.80;49.90;;;;;;5055016;28;20052;-52
2022/11/25 10:39:00;;;;;;;7.38;1.92;;;21.80;50.10;;;;;;5096875;28;20076;-51
2022/11/25 10:41:31;;;;;;;5.28;2.17;;;21.80;50.00;;;;;;5096115;28;20128;-50
2022/11/25 10:43:57;;;;;;;5.43;2.30;;;21.80;50.00;;;;;;5089660;28;20088;-49
2022/11/25 10:46:36;;;;;;;6.40;2.40;;;21.80;50.00;;;;;;5074717;28;20048;-51
2022/11/25 10:49:21;;;;;;;5.57;2.40;;;21.90;49.90;;;;;;5074643;28;20049;-51
2022/11/25 10:51:49;;;;;;;5.55;2.10;;;21.90;49.80;;;;;;5087120;28;20036;-48
2022/11/25 10:54:22;;;;;;;5.50;2.10;;;21.90;49.80;;;;;;5094679;28;20040;-50
2022/11/25 10:56:49;;;;;;;6.65;1.85;;;21.90;49.70;;;;;;5095365;28;20055;-51
2022/11/25 10:59:36;;;;;;;4.97;1.73;;;21.90;49.70;;;;;;5093665;28;20039;-50
2022/11/25 11:02:22;;;;;;;3.47;1.40;;;21.90;49.50;;;;;;5095750;28;20040;-48
2022/11/25 11:05:06;;;;;;;6.57;1.60;;;21.90;49.30;;;;;;5095872;28;20032;-52
2022/11/25 11:07:41;;;;;;;3.67;1.73;;;21.90;49.20;;;;;;5095688;28;20051;-51
2022/11/25 11:10:21;;;;;;;4.15;1.80;;;21.90;49.30;;;;;;5096312;28;20047;-52
2022/11/25 11:12:53;;;;;;;4.70;1.63;;;21.90;49.00;;;;;;5096168;28;20040;-51
2022/11/25 11:15:25;;;;;;;6.03;1.95;;;21.90;49.20;;;;;;5095529;28;20079;-49
2022/11/25 11:17:52;;;;;;;4.25;1.98;;;21.90;49.20;;;;;;5095301;28;20044;-51
2022/11/25 11:20:23;;;;;;;4.25;1.95;;;21.90;49.30;;;;;;5094800;28;20051;-48
2022/11/25 11:23:11;;;;;;;4.82;1.92;;;21.80;49.10;;;;;;5091657;28;20040;-51
2022/11/25 11:25:55;;;;;;;3.50;1.38;;;21.90;49.20;;;;;;5073058;28;20128;-48
2022/11/25 11:28:33;;;;;;;3.72;1.42;;;21.90;49.20;;;;;;5075019;28;20113;-52
2022/11/25 11:31:06;;;;;;;3.13;1.50;;;21.90;49.10;;;;;;5073656;28;20045;-51
2022/11/25 11:33:42;;;;;;;4.20;1.83;;;21.90;49.10;;;;;;5074281;28;20036;-50
2022/11/25 11:36:34;;;;;;;7.47;1.85;;;21.90;49.00;;;;;;5075467;28;20045;-50
2022/11/25 11:39:18;;;;;;;3.55;1.60;;;21.90;49.10;;;;;;5075198;28;20040;-51
2022/11/25 11:42:24;;;;;;;5.38;1.95;;;21.80;48.90;;;;;;5073568;28;20067;-52
2022/11/25 11:45:10;;;;;;;7.22;1.90;;;21.70;49.00;;;;;;5074483;28;20120;-49
2022/11/25 11:47:58;;;;;;;5.45;1.83;;;21.80;49.50;;;;;;5073204;28;20450;-51
2022/11/25 11:50:25;;;;;;;7.32;2.03;;;21.70;49.40;;;;;;5074311;28;20494;-51
2022/11/25 11:52:55;;;;;;;5.38;1.75;;;21.80;49.60;;;;;;5073392;28;20041;-51
2022/11/25 11:55:42;;;;;;;4.85;1.90;;;21.80;49.50;;;;;;5074601;28;20371;-51
2022/11/25 11:58:33;;;;;;;16.92;3.85;;;21.90;49.40;;;;;;5074163;28;20408;-51
2022/11/25 12:01:19;;;;;;;15.00;5.35;;;21.90;49.60;;;;;;5074245;28;20048;-53
2022/11/25 12:04:13;;;;;;;19.73;5.45;;;21.90;49.70;;;;;;5073999;28;20352;-51
2022/11/25 12:06:42;;;;;;;15.27;6.05;;;21.90;49.80;;;;;;5074570;28;20041;-50
2022/11/25 12:09:14;;;;;;;17.55;6.10;;;21.90;50.00;;;;;;5074155;28;20051;-50
2022/11/25 12:11:52;;;;;;;19.88;5.32;;;21.90;50.20;;;;;;5074315;28;20044;-51
2022/11/25 12:14:43;;;;;;;15.45;5.32;;;21.90;51.00;;;;;;5075052;28;20041;-50
2022/11/25 12:17:33;;;;;;;14.35;5.57;;;21.80;50.20;;;;;;5074398;28;20480;-50
2022/11/25 12:20:20;;;;;;;13.55;4.53;;;21.80;50.60;;;;;;5072614;28;20061;-52
2022/11/25 12:22:58;;;;;;;13.75;4.40;;;21.80;50.70;;;;;;5090318;28;20376;-51
2022/11/25 12:25:35;;;;;;;12.73;4.70;;;21.70;51.60;;;;;;5074066;28;20075;-51
2022/11/25 12:28:42;;;;;;;12.30;4.15;;;21.70;50.90;;;;;;5057196;28;20098;-51
2022/11/25 12:31:14;;;;;;;17.77;4.50;;;21.70;50.90;;;;;;5073255;28;20044;-51
2022/11/25 12:33:59;;;;;;;10.90;4.18;;;21.70;50.80;;;;;;5073602;28;20465;-50
2022/11/25 12:36:34;;;;;;;13.45;4.28;;;21.70;50.80;;;;;;5073945;28;20044;-51
2022/11/25 12:39:23;;;;;;;8.48;2.88;;;21.80;50.80;;;;;;5073866;28;20045;-51
2022/11/25 12:42:00;;;;;;;9.23;3.20;;;21.70;50.70;;;;;;5072237;28;20039;-52
2022/11/25 12:44:50;;;;;;;8.63;3.22;;;21.80;50.70;;;;;;5073695;28;20044;-52
2022/11/25 12:47:15;;;;;;;9.50;2.80;;;21.80;50.70;;;;;;5074671;28;20036;-52
2022/11/25 12:49:47;;;;;;;8.25;3.03;;;21.70;50.70;;;;;;5073506;28;20380;-50
2022/11/25 12:52:41;;;;;;;8.13;3.13;;;21.70;50.60;;;;;;5074282;28;20036;-52
2022/11/25 12:55:21;;;;;;;9.23;2.70;;;21.70;50.70;;;;;;5070586;28;20044;-52
2022/11/25 12:58:10;;;;;;;10.55;3.53;;;21.80;50.80;;;;;;5073355;28;20461;-51
2022/11/25 13:01:08;;;;;;;8.30;2.88;;;21.80;50.70;;;;;;5074494;28;20093;-52
2022/11/25 13:04:11;;;;;;;9.70;3.00;;;21.80;50.70;;;;;;5074248;28;20055;-52
2022/11/25 13:06:57;;;;;;;6.50;2.50;;;21.80;50.60;;;;;;5083703;28;20068;-51
2022/11/25 13:09:51;;;;;;;5.63;1.98;;;21.80;50.50;;;;;;5089505;28;20051;-51
2022/11/25 13:12:47;;;;;;;7.25;2.13;;;21.70;50.60;;;;;;5078867;28;20040;-52